createdAt,value
2019-05-15T00:02:19.406Z,2.57
2019-05-15T00:05:05.433Z,2.60
2019-05-15T00:08:04.464Z,2.80
2019-05-15T00:10:50.876Z,2.40
2019-05-15T00:13:38.890Z,2.30
2019-05-15T00:16:25.187Z,2.80
2019-05-15T00:19:11.409Z,2.00
2019-05-15T00:21:58.568Z,2.80
2019-05-15T00:24:44.877Z,2.37
2019-05-15T00:27:31.324Z,2.57
2019-05-15T00:30:20.315Z,2.57
2019-05-15T00:33:19.327Z,2.47
2019-05-15T00:36:08.472Z,2.50
2019-05-15T00:38:56.247Z,2.50
2019-05-15T00:41:53.357Z,2.23
2019-05-15T00:44:30.393Z,2.20
2019-05-15T00:47:18.137Z,2.23
2019-05-15T00:50:04.057Z,2.47
2019-05-15T00:52:50.087Z,2.43
2019-05-15T00:55:37.981Z,2.27
2019-05-15T00:58:28.380Z,2.27
2019-05-15T01:01:14.509Z,2.70
2019-05-15T01:04:02.107Z,2.37
2019-05-15T01:06:48.793Z,2.70
2019-05-15T01:09:39.178Z,2.63
2019-05-15T01:12:25.415Z,2.30
2019-05-15T01:15:12.057Z,2.27
2019-05-15T01:17:58.373Z,2.00
2019-05-15T01:20:44.336Z,2.57
2019-05-15T01:23:32.047Z,2.43
2019-05-15T01:26:18.922Z,2.40
2019-05-15T01:29:05.422Z,2.27
2019-05-15T01:31:51.621Z,2.37
2019-05-15T01:34:38.547Z,2.67
2019-05-15T01:37:24.821Z,2.40
2019-05-15T01:40:10.904Z,2.57
2019-05-15T01:42:58.297Z,2.50
2019-05-15T01:45:44.663Z,2.30
2019-05-15T01:48:31.749Z,2.47
2019-05-15T01:51:19.388Z,2.27
2019-05-15T01:54:05.511Z,2.33
2019-05-15T01:56:51.795Z,2.43
2019-05-15T01:59:40.207Z,2.43
2019-05-15T02:02:27.920Z,2.73
2019-05-15T02:05:14.071Z,2.27
2019-05-15T02:08:05.207Z,2.90
2019-05-15T02:10:51.857Z,2.20
2019-05-15T02:13:42.597Z,2.40
2019-05-15T02:16:28.916Z,2.53
2019-05-15T02:19:15.503Z,2.70
2019-05-15T02:22:01.821Z,2.60
2019-05-15T02:24:50.840Z,2.40
2019-05-15T02:27:39.330Z,2.60
2019-05-15T02:30:30.210Z,2.20
2019-05-15T02:33:18.655Z,2.27
2019-05-15T02:36:03.978Z,2.47
2019-05-15T02:38:50.151Z,2.40
2019-05-15T02:41:39.424Z,2.17
2019-05-15T02:44:24.486Z,2.13
2019-05-15T02:47:12.902Z,2.13
2019-05-15T02:49:59.408Z,2.13
2019-05-15T02:52:45.778Z,2.20
2019-05-15T02:55:32.027Z,1.80
2019-05-15T02:58:21.092Z,1.90
2019-05-15T03:01:09.044Z,1.97
2019-05-15T03:03:59.443Z,2.33
2019-05-15T03:06:44.033Z,2.13
2019-05-15T03:09:30.597Z,2.13
2019-05-15T03:12:19.537Z,1.93
2019-05-15T03:15:09.703Z,2.17
2019-05-15T03:17:55.725Z,2.27
2019-05-15T03:20:42.273Z,2.37
2019-05-15T03:23:29.595Z,1.90
2019-05-15T03:26:19.704Z,2.30
2019-05-15T03:29:05.309Z,1.87
2019-05-15T03:32:05.976Z,1.77
2019-05-15T03:34:56.570Z,2.20
2019-05-15T03:37:39.784Z,2.20
2019-05-15T03:40:30.018Z,2.40
2019-05-15T03:43:19.287Z,2.23
2019-05-15T03:46:08.778Z,2.43
2019-05-15T03:48:53.938Z,2.50
2019-05-15T03:51:45.455Z,1.87
2019-05-15T03:54:29.330Z,2.50
2019-05-15T03:57:23.178Z,2.20
2019-05-15T04:00:09.860Z,2.57
2019-05-15T04:02:59.054Z,2.60
2019-05-15T04:05:45.185Z,2.43
2019-05-15T04:08:31.123Z,2.40
2019-05-15T04:11:24.550Z,2.43
2019-05-15T04:14:22.844Z,2.50
2019-05-15T04:17:09.307Z,2.57
2019-05-15T04:19:55.591Z,3.17
2019-05-15T04:22:41.698Z,6.37
2019-05-15T04:25:31.234Z,3.37
2019-05-15T04:28:19.339Z,2.77
2019-05-15T04:31:05.523Z,2.90
2019-05-15T04:33:51.555Z,2.43
2019-05-15T04:36:39.592Z,2.83
2019-05-15T04:39:33.154Z,2.57
2019-05-15T04:42:20.217Z,2.90
2019-05-15T04:45:10.013Z,4.43
2019-05-15T04:47:58.533Z,2.40
2019-05-15T04:50:43.849Z,2.83
2019-05-15T04:53:33.218Z,10.67
2019-05-15T04:56:19.335Z,6.23
2019-05-15T04:59:10.202Z,2.57
2019-05-15T05:02:16.437Z,1.93
2019-05-15T05:04:53.363Z,2.50
2019-05-15T05:07:40.037Z,2.53
2019-05-15T05:10:28.936Z,2.33
2019-05-15T05:13:14.469Z,2.70
2019-05-15T05:16:05.011Z,2.80
2019-05-15T05:18:54.551Z,2.50
2019-05-15T05:21:43.118Z,3.10
2019-05-15T05:24:30.008Z,3.70
2019-05-15T05:27:20.284Z,3.13
2019-05-15T05:30:09.052Z,3.23
2019-05-15T05:32:58.023Z,4.10
2019-05-15T05:35:48.162Z,2.97
2019-05-15T05:38:34.228Z,2.70
2019-05-15T05:41:21.209Z,3.10
2019-05-15T05:44:10.517Z,2.87
2019-05-15T05:46:58.208Z,2.93
2019-05-15T05:49:44.641Z,3.40
2019-05-15T05:52:31.498Z,2.60
2019-05-15T05:55:17.930Z,4.27
2019-05-15T05:58:04.253Z,3.47
2019-05-15T06:00:50.391Z,2.97
2019-05-15T06:03:38.160Z,2.90
2019-05-15T06:06:24.435Z,2.83
2019-05-15T06:09:11.888Z,1.90
2019-05-15T06:11:58.677Z,2.20
2019-05-15T06:14:44.485Z,1.80
2019-05-15T06:17:30.781Z,1.50
2019-05-15T06:20:18.587Z,1.30
2019-05-15T06:23:05.000Z,1.03
2019-05-15T06:25:51.235Z,1.47
2019-05-15T06:28:40.574Z,1.63
2019-05-15T06:31:29.242Z,2.13
2019-05-15T06:34:17.723Z,2.37
2019-05-15T06:37:03.742Z,2.00
2019-05-15T06:39:50.059Z,1.63
2019-05-15T06:42:36.022Z,1.80
2019-05-15T06:45:23.044Z,1.63
2019-05-15T06:48:11.260Z,1.57
2019-05-15T06:50:57.959Z,1.63
2019-05-15T06:53:45.079Z,2.10
2019-05-15T06:56:31.661Z,1.60
2019-05-15T06:59:18.079Z,1.60
2019-05-15T07:02:04.896Z,1.53
2019-05-15T07:04:51.406Z,1.70
2019-05-15T07:07:39.855Z,1.30
2019-05-15T07:10:28.777Z,1.50
2019-05-15T07:13:14.977Z,1.60
2019-05-15T07:16:01.220Z,1.60
2019-05-15T07:18:48.565Z,1.30
2019-05-15T07:21:38.519Z,1.33
2019-05-15T07:24:24.930Z,1.20
2019-05-15T07:27:11.278Z,1.70
2019-05-15T07:29:58.423Z,1.63
2019-05-15T07:32:45.149Z,1.00
2019-05-15T07:35:31.569Z,1.30
2019-05-15T07:38:18.361Z,1.00
2019-05-15T07:41:06.193Z,1.37
2019-05-15T07:43:52.409Z,1.50
2019-05-15T07:46:48.821Z,1.10
2019-05-15T07:49:39.036Z,1.63
2019-05-15T07:52:25.344Z,1.30
2019-05-15T07:55:11.645Z,1.20
2019-05-15T07:57:59.143Z,1.17
2019-05-15T08:00:45.696Z,1.87
2019-05-15T08:03:32.016Z,1.20
2019-05-15T08:06:24.433Z,1.30
2019-05-15T08:09:09.527Z,1.10
2019-05-15T08:11:55.580Z,1.70
2019-05-15T08:14:41.609Z,1.87
2019-05-15T08:17:28.880Z,1.73
2019-05-15T08:20:15.169Z,1.67
2019-05-15T08:23:01.496Z,1.70
2019-05-15T08:25:48.501Z,1.70
2019-05-15T08:28:35.220Z,1.57
2019-05-15T08:31:21.706Z,1.60
2019-05-15T08:34:15.201Z,2.30
2019-05-15T08:36:58.367Z,2.13
2019-05-15T08:39:44.157Z,2.20
2019-05-15T08:42:32.258Z,1.70
2019-05-15T08:45:18.892Z,2.00
2019-05-15T08:48:05.346Z,1.83
2019-05-15T08:50:51.794Z,1.83
2019-05-15T08:53:38.200Z,1.50
2019-05-15T08:56:24.735Z,1.50
2019-05-15T08:59:10.819Z,1.33
2019-05-15T09:01:58.250Z,1.23
2019-05-15T09:04:44.781Z,1.60
2019-05-15T09:07:33.033Z,1.40
2019-05-15T09:10:22.056Z,1.37
2019-05-15T09:13:09.678Z,1.00
2019-05-15T09:15:59.125Z,1.77
2019-05-15T09:18:48.507Z,1.27
2019-05-15T09:21:34.937Z,1.40
2019-05-15T09:24:21.090Z,1.57
2019-05-15T09:27:09.932Z,1.20
2019-05-15T09:29:59.183Z,1.13
2019-05-15T09:32:48.485Z,1.70
2019-05-15T09:35:36.351Z,1.70
2019-05-15T09:38:22.359Z,1.30
2019-05-15T09:41:09.202Z,1.10
2019-05-15T09:43:57.761Z,1.60
2019-05-15T09:46:52.015Z,1.47
2019-05-15T09:49:39.134Z,1.80
2019-05-15T09:52:25.446Z,1.50
2019-05-15T09:55:13.627Z,1.40
2019-05-15T09:57:59.680Z,1.60
2019-05-15T10:00:50.802Z,1.40
2019-05-15T10:03:33.888Z,1.40
2019-05-15T10:06:24.261Z,1.90
2019-05-15T10:09:13.208Z,1.70
2019-05-15T10:11:59.278Z,1.93
2019-05-15T10:14:48.848Z,1.53
2019-05-15T10:17:37.233Z,1.37
2019-05-15T10:20:25.472Z,2.57
2019-05-15T10:23:11.532Z,1.73
2019-05-15T10:25:59.870Z,2.10
2019-05-15T10:28:49.366Z,2.77
2019-05-15T10:31:35.276Z,1.97
2019-05-15T10:34:21.528Z,2.30
2019-05-15T10:37:08.423Z,2.10
2019-05-15T10:39:54.863Z,1.77
2019-05-15T10:42:40.813Z,2.10
2019-05-15T10:45:29.371Z,1.40
2019-05-15T10:48:15.035Z,1.70
2019-05-15T10:51:06.284Z,2.20
2019-05-15T10:53:51.266Z,2.40
2019-05-15T10:56:38.517Z,2.50
2019-05-15T10:59:25.011Z,1.90
2019-05-15T11:02:11.159Z,2.00
2019-05-15T11:05:00.069Z,2.10
2019-05-15T11:07:48.266Z,3.57
2019-05-15T11:10:34.098Z,1.80
2019-05-15T11:13:21.325Z,1.50
2019-05-15T11:16:10.953Z,1.83
2019-05-15T11:18:59.938Z,1.60
2019-05-15T11:21:53.547Z,1.77
2019-05-15T11:24:39.736Z,1.47
2019-05-15T11:27:27.922Z,1.80
2019-05-15T11:30:14.207Z,1.73
2019-05-15T11:33:03.451Z,1.40
2019-05-15T11:36:00.970Z,1.83
2019-05-15T11:38:40.498Z,1.23
2019-05-15T11:41:29.171Z,2.10
2019-05-15T11:44:19.623Z,1.60
2019-05-15T11:47:05.890Z,1.53
2019-05-15T11:49:51.899Z,1.50
2019-05-15T11:52:40.473Z,1.37
2019-05-15T11:55:29.391Z,1.37
2019-05-15T11:58:18.913Z,1.70
2019-05-15T12:01:10.802Z,2.10
2019-05-15T12:04:03.194Z,1.90
2019-05-15T12:06:58.794Z,1.70
2019-05-15T12:09:38.808Z,1.33
2019-05-15T12:12:31.475Z,1.33
2019-05-15T12:15:15.660Z,1.90
2019-05-15T12:18:01.901Z,1.67
2019-05-15T12:20:51.259Z,1.37
2019-05-15T12:23:38.762Z,1.60
2019-05-15T12:26:32.634Z,1.70
2019-05-15T12:29:18.835Z,1.27
2019-05-15T12:32:21.853Z,1.57
2019-05-15T12:34:53.494Z,1.50
2019-05-15T12:37:40.433Z,1.20
2019-05-15T13:00:12.637Z,1.30
2019-05-15T13:02:59.423Z,1.60
2019-05-15T13:05:48.381Z,1.23
2019-05-15T13:08:33.609Z,1.47
2019-05-15T13:11:20.709Z,1.50
2019-05-15T13:14:08.173Z,1.70
2019-05-15T13:16:54.528Z,1.63
2019-05-15T13:19:43.567Z,1.60
2019-05-15T13:22:32.998Z,1.70
2019-05-15T13:25:19.252Z,2.00
2019-05-15T13:28:13.411Z,1.73
2019-05-15T13:30:59.813Z,1.70
2019-05-15T13:33:48.140Z,1.33
2019-05-15T13:36:33.918Z,1.83
2019-05-15T13:39:28.450Z,1.83
2019-05-15T13:42:14.966Z,1.50
2019-05-15T13:45:01.256Z,1.00
2019-05-15T13:47:50.484Z,2.13
2019-05-15T13:50:39.766Z,1.50
2019-05-15T13:53:27.884Z,1.17
2019-05-15T13:56:13.884Z,1.37
2019-05-15T13:59:00.344Z,1.70
2019-05-15T14:01:50.487Z,1.40
2019-05-15T14:04:38.671Z,1.43
2019-05-15T14:07:24.786Z,1.63
2019-05-15T14:10:11.781Z,2.17
2019-05-15T14:12:58.415Z,2.17
2019-05-15T14:15:44.708Z,1.47
2019-05-15T14:18:31.369Z,1.73
2019-05-15T14:21:18.417Z,1.73
2019-05-15T14:24:04.905Z,2.00
2019-05-15T14:26:51.778Z,1.30
2019-05-15T14:29:38.407Z,1.70
2019-05-15T14:32:38.239Z,1.40
2019-05-15T14:35:12.903Z,1.50
2019-05-15T14:38:06.372Z,1.70
2019-05-15T14:40:48.222Z,1.50
2019-05-15T14:43:38.284Z,1.62
2019-05-15T14:46:27.505Z,1.57
2019-05-15T14:49:13.592Z,1.40
2019-05-15T14:52:08.249Z,1.50
2019-05-15T14:54:48.938Z,1.50
2019-05-15T14:57:39.192Z,1.42
2019-05-15T15:00:29.003Z,1.60
2019-05-15T15:03:13.822Z,2.10
2019-05-15T15:06:00.187Z,1.67
2019-05-15T15:08:48.745Z,1.47
2019-05-15T15:11:35.015Z,2.20
2019-05-15T15:14:21.294Z,1.33
2019-05-15T15:17:07.799Z,1.67
2019-05-15T15:19:54.189Z,3.17
2019-05-15T15:22:40.649Z,1.27
2019-05-15T15:25:27.067Z,1.40
2019-05-15T15:28:19.045Z,1.23
2019-05-15T15:31:05.178Z,1.37
2019-05-15T15:33:54.408Z,1.63
2019-05-15T15:36:40.877Z,1.70
2019-05-15T15:39:28.124Z,1.50
2019-05-15T15:42:17.373Z,1.47
2019-05-15T15:45:03.287Z,2.07
2019-05-15T15:47:49.436Z,2.13
2019-05-15T15:50:38.510Z,1.43
2019-05-15T15:53:25.520Z,1.50
2019-05-15T15:56:12.205Z,1.60
2019-05-15T15:59:00.921Z,1.27
2019-05-15T16:01:49.449Z,1.53
2019-05-15T16:04:39.220Z,1.30
2019-05-15T16:07:25.734Z,1.83
2019-05-15T16:10:13.458Z,1.40
2019-05-15T16:12:59.759Z,1.23
2019-05-15T16:15:46.130Z,1.30
2019-05-15T16:18:32.049Z,1.43
2019-05-15T16:21:19.269Z,1.40
2019-05-15T16:24:16.610Z,2.30
2019-05-15T16:26:54.472Z,1.37
2019-05-15T16:29:40.842Z,5.43
2019-05-15T16:32:28.989Z,1.60
2019-05-15T16:35:14.687Z,1.60
2019-05-15T16:38:01.135Z,2.33
2019-05-15T16:40:48.901Z,1.80
2019-05-15T16:43:35.289Z,2.70
2019-05-15T16:46:24.252Z,1.47
2019-05-15T16:49:12.974Z,1.80
2019-05-15T16:51:58.975Z,1.80
2019-05-15T16:54:45.033Z,1.60
2019-05-15T16:57:31.239Z,5.10
2019-05-15T17:00:18.709Z,1.70
2019-05-15T17:03:13.617Z,1.50
2019-05-15T17:05:53.300Z,1.30
2019-05-15T17:08:39.529Z,1.70
2019-05-15T17:11:25.861Z,1.50
2019-05-15T17:14:12.333Z,1.27
2019-05-15T17:16:58.854Z,1.37
2019-05-15T17:19:45.139Z,1.80
2019-05-15T17:22:32.153Z,1.50
2019-05-15T17:25:18.546Z,1.43
2019-05-15T17:28:04.781Z,1.67
2019-05-15T17:30:53.626Z,1.30
2019-05-15T17:33:40.631Z,1.57
2019-05-15T17:36:31.443Z,1.30
2019-05-15T17:39:20.072Z,1.73
2019-05-15T17:42:06.207Z,2.00
2019-05-15T17:44:52.711Z,1.70
2019-05-15T17:47:41.194Z,1.40
2019-05-15T17:50:28.389Z,1.67
2019-05-15T17:53:14.760Z,1.23
2019-05-15T17:56:01.209Z,2.07
2019-05-15T17:58:51.200Z,1.73
2019-05-15T18:01:38.354Z,2.60
2019-05-15T18:04:24.487Z,2.00
2019-05-15T18:07:11.212Z,1.57
2019-05-15T18:09:59.144Z,1.63
2019-05-15T18:12:46.048Z,1.30
2019-05-15T18:15:32.273Z,1.30
2019-05-15T18:18:18.799Z,1.90
2019-05-15T18:21:05.214Z,1.27
2019-05-15T18:23:51.285Z,1.47
2019-05-15T18:26:40.659Z,1.40
2019-05-15T18:29:27.199Z,1.90
2019-05-15T18:32:13.391Z,1.33
2019-05-15T18:35:00.473Z,1.73
2019-05-15T18:37:48.283Z,2.07
2019-05-15T18:40:35.295Z,2.13
2019-05-15T18:43:21.290Z,1.90
2019-05-15T18:46:09.733Z,1.30
2019-05-15T18:48:57.923Z,1.70
2019-05-15T18:51:43.975Z,1.70
2019-05-15T18:54:30.047Z,2.20
2019-05-15T18:57:18.487Z,2.10
2019-05-15T19:00:04.075Z,2.50
2019-05-15T19:02:50.073Z,2.20
2019-05-15T19:05:38.526Z,3.20
2019-05-15T19:08:24.224Z,1.83
2019-05-15T19:11:10.296Z,1.70
2019-05-15T19:13:59.755Z,2.00
2019-05-15T19:16:48.428Z,1.53
2019-05-15T19:19:35.879Z,2.20
2019-05-15T19:22:24.577Z,2.93
2019-05-15T19:25:11.141Z,3.87
2019-05-15T19:27:57.511Z,4.43
2019-05-15T19:30:43.613Z,5.40
2019-05-15T19:33:37.054Z,4.80
2019-05-15T19:36:18.261Z,5.80
2019-05-15T19:39:04.787Z,8.87
2019-05-15T19:41:50.901Z,7.80
2019-05-15T19:44:37.796Z,4.17
2019-05-15T19:47:24.997Z,2.50
2019-05-15T19:50:14.348Z,3.90
2019-05-15T19:53:01.277Z,2.67
2019-05-15T19:55:48.359Z,2.37
2019-05-15T19:58:34.525Z,3.60
2019-05-15T20:01:20.990Z,3.30
2019-05-15T20:04:08.024Z,4.50
2019-05-15T20:06:54.757Z,3.93
2019-05-15T20:09:40.886Z,2.80
2019-05-15T20:12:27.917Z,4.30
2019-05-15T20:15:19.077Z,4.60
2019-05-15T20:18:05.182Z,5.00
2019-05-15T20:20:51.533Z,3.60
2019-05-15T20:23:38.289Z,4.00
2019-05-15T20:26:28.668Z,2.73
2019-05-15T20:29:15.159Z,3.30
2019-05-15T20:32:02.059Z,2.40
2019-05-15T20:34:48.464Z,3.10
2019-05-15T20:37:38.977Z,4.73
2019-05-15T20:40:25.167Z,2.70
2019-05-15T20:46:14.852Z,2.77
2019-05-15T20:49:01.136Z,3.10
2019-05-15T20:51:48.895Z,3.23
2019-05-15T20:54:38.439Z,3.23
2019-05-15T20:57:23.743Z,3.20
2019-05-15T21:00:11.272Z,3.07
2019-05-15T21:02:57.836Z,3.17
2019-05-15T21:05:45.244Z,2.23
2019-05-15T21:08:31.278Z,2.30
2019-05-15T21:11:18.043Z,1.83
2019-05-15T21:14:08.539Z,2.13
2019-05-15T21:16:54.326Z,2.50
2019-05-15T21:19:42.389Z,2.17
2019-05-15T21:22:34.976Z,2.40
2019-05-15T21:25:23.814Z,1.70
2019-05-15T21:28:09.886Z,2.27
2019-05-15T21:30:58.086Z,2.87
2019-05-15T21:33:44.452Z,3.13
2019-05-15T21:36:31.597Z,3.53
2019-05-15T21:39:17.673Z,3.00
2019-05-15T21:42:08.970Z,3.00
2019-05-15T21:44:55.405Z,2.37
2019-05-15T21:47:45.481Z,1.97
2019-05-15T21:50:31.409Z,2.50
2019-05-15T21:53:19.854Z,2.60
2019-05-15T21:56:08.043Z,2.90
2019-05-15T21:58:53.333Z,2.70
2019-05-15T22:01:39.823Z,2.73
2019-05-15T22:04:30.561Z,2.43
2019-05-15T22:07:17.775Z,2.90
2019-05-15T22:10:04.646Z,2.50
2019-05-15T22:12:51.850Z,2.20
2019-05-15T22:15:37.974Z,1.97
2019-05-15T22:18:24.970Z,2.00
2019-05-15T22:21:11.298Z,1.77
2019-05-15T22:24:00.369Z,1.87
2019-05-15T22:26:48.131Z,1.63
2019-05-15T22:29:37.869Z,1.70
2019-05-15T22:32:24.039Z,1.80
2019-05-15T22:35:13.779Z,2.20
2019-05-15T22:37:58.561Z,1.93
2019-05-15T22:40:45.061Z,2.30
2019-05-15T22:43:31.161Z,2.27
2019-05-15T22:46:18.634Z,2.70
2019-05-15T22:49:04.788Z,2.20
2019-05-15T22:51:51.098Z,2.57
2019-05-15T22:54:39.133Z,2.30
2019-05-15T22:57:28.043Z,2.60
2019-05-15T23:00:14.324Z,2.40
2019-05-15T23:03:02.884Z,2.40
2019-05-15T23:05:48.983Z,2.63
2019-05-15T23:08:35.172Z,2.07
2019-05-15T23:11:24.538Z,3.00
2019-05-15T23:14:14.218Z,2.07
2019-05-15T23:17:00.346Z,2.27
2019-05-15T23:19:48.499Z,2.40
2019-05-15T23:22:38.666Z,2.20
2019-05-15T23:25:29.057Z,2.50
2019-05-15T23:28:19.460Z,2.10
2019-05-15T23:31:05.524Z,2.60
2019-05-15T23:33:54.153Z,2.40
2019-05-15T23:36:48.277Z,2.40
2019-05-15T23:39:34.407Z,2.23
2019-05-15T23:42:21.316Z,2.13
2019-05-15T23:45:07.604Z,2.43
2019-05-15T23:47:53.871Z,2.57
2019-05-15T23:50:39.858Z,2.40
2019-05-15T23:53:29.038Z,2.90
2019-05-15T23:56:15.179Z,2.63
2019-05-15T23:59:01.899Z,2.10
